createdAt,value
2022-09-30T00:00:17.719Z,6.14
2022-09-30T00:01:17.700Z,6.08
2022-09-30T00:02:17.772Z,5.99
2022-09-30T00:03:17.731Z,5.93
2022-09-30T00:04:17.987Z,5.86
2022-09-30T00:05:17.641Z,5.89
2022-09-30T00:06:17.629Z,5.86
2022-09-30T00:07:17.615Z,5.82
2022-09-30T00:08:17.629Z,5.76
2022-09-30T00:09:18.121Z,5.75
2022-09-30T00:10:17.602Z,5.74
2022-09-30T00:11:17.558Z,5.74
2022-09-30T00:12:17.555Z,5.74
2022-09-30T00:13:17.537Z,5.72
2022-09-30T00:14:17.906Z,5.71
2022-09-30T00:15:17.506Z,5.71
2022-09-30T00:16:17.544Z,5.71
2022-09-30T00:17:17.488Z,5.71
2022-09-30T00:18:17.494Z,5.67
2022-09-30T00:19:17.825Z,5.65
2022-09-30T00:20:17.463Z,5.64
2022-09-30T00:21:17.440Z,5.63
2022-09-30T00:22:17.433Z,5.68
2022-09-30T00:23:17.403Z,5.74
2022-09-30T00:24:17.404Z,5.81
2022-09-30T00:25:17.805Z,5.85
2022-09-30T00:26:17.376Z,5.89
2022-09-30T00:27:17.357Z,5.89
2022-09-30T00:28:17.343Z,5.85
2022-09-30T00:29:17.709Z,5.82
2022-09-30T00:30:17.311Z,5.76
2022-09-30T00:31:17.343Z,5.75
2022-09-30T00:32:17.293Z,5.76
2022-09-30T00:33:17.277Z,5.78
2022-09-30T00:34:17.697Z,5.79
2022-09-30T00:35:20.503Z,5.81
2022-09-30T00:36:18.249Z,5.81
2022-09-30T00:37:17.222Z,5.82
2022-09-30T00:38:17.222Z,5.85
2022-09-30T00:39:17.579Z,5.86
2022-09-30T00:40:17.187Z,5.94
2022-09-30T00:41:17.179Z,6.01
2022-09-30T00:42:17.158Z,6.06
2022-09-30T00:43:17.151Z,6.14
2022-09-30T00:44:17.148Z,6.18
2022-09-30T00:45:17.576Z,6.21
2022-09-30T00:46:17.179Z,6.25
2022-09-30T00:47:17.096Z,6.27
2022-09-30T00:48:17.087Z,6.28
2022-09-30T00:49:17.505Z,6.28
2022-09-30T00:50:17.062Z,6.30
2022-09-30T00:51:17.047Z,6.30
2022-09-30T00:52:17.047Z,6.30
2022-09-30T00:53:17.024Z,6.34
2022-09-30T00:54:17.005Z,6.36
2022-09-30T00:55:17.350Z,6.36
2022-09-30T00:56:16.993Z,6.37
2022-09-30T00:57:16.974Z,6.43
2022-09-30T00:58:16.957Z,6.46
2022-09-30T00:59:17.464Z,6.55
2022-09-30T01:00:16.934Z,6.58
2022-09-30T01:01:17.019Z,6.62
2022-09-30T01:02:16.961Z,6.67
2022-09-30T01:03:16.882Z,6.69
2022-09-30T01:04:17.204Z,6.70
2022-09-30T01:05:16.871Z,6.73
2022-09-30T01:06:16.850Z,6.71
2022-09-30T01:07:16.832Z,6.73
2022-09-30T01:08:16.841Z,6.74
2022-09-30T01:09:17.252Z,6.76
2022-09-30T01:10:16.802Z,6.80
2022-09-30T01:11:16.789Z,6.81
2022-09-30T01:12:16.787Z,6.87
2022-09-30T01:13:16.787Z,6.85
2022-09-30T01:14:16.761Z,6.85
2022-09-30T01:15:17.112Z,6.85
2022-09-30T01:16:16.763Z,6.85
2022-09-30T01:17:16.710Z,6.80
2022-09-30T01:18:16.699Z,6.79
2022-09-30T01:19:17.201Z,6.76
2022-09-30T01:20:16.685Z,6.76
2022-09-30T01:21:16.647Z,6.76
2022-09-30T01:22:16.647Z,6.73
2022-09-30T01:23:16.649Z,6.73
2022-09-30T01:24:16.625Z,6.70
2022-09-30T01:25:17.027Z,6.70
2022-09-30T01:26:16.612Z,6.69
2022-09-30T01:27:16.585Z,6.70
2022-09-30T01:28:16.595Z,6.71
2022-09-30T01:29:16.923Z,6.71
2022-09-30T01:30:16.550Z,6.73
2022-09-30T01:31:16.580Z,6.73
2022-09-30T01:32:16.525Z,6.73
2022-09-30T01:33:16.503Z,6.73
2022-09-30T01:34:16.492Z,6.70
2022-09-30T01:35:16.905Z,6.71
2022-09-30T01:36:16.464Z,6.73
2022-09-30T01:37:16.451Z,6.74
2022-09-30T01:38:23.447Z,6.74
2022-09-30T01:39:23.925Z,6.74
2022-09-30T01:40:16.420Z,6.73
2022-09-30T01:41:16.385Z,6.71
2022-09-30T01:42:23.394Z,6.70
2022-09-30T01:43:16.361Z,6.69
2022-09-30T01:44:23.378Z,6.69
2022-09-30T01:45:23.703Z,6.66
2022-09-30T01:46:16.396Z,6.67
2022-09-30T01:47:16.336Z,6.66
2022-09-30T01:48:16.295Z,6.66
2022-09-30T01:49:16.729Z,6.64
2022-09-30T01:50:16.284Z,6.64
2022-09-30T01:51:16.295Z,6.64
2022-09-30T01:52:16.292Z,6.64
2022-09-30T01:53:16.248Z,6.64
2022-09-30T01:54:16.613Z,6.66
2022-09-30T01:55:16.213Z,6.64
2022-09-30T01:56:16.244Z,6.64
2022-09-30T01:57:16.245Z,6.64
2022-09-30T01:58:16.184Z,6.64
2022-09-30T01:59:16.492Z,6.66
2022-09-30T02:00:16.162Z,6.70
2022-09-30T02:01:16.204Z,6.71
2022-09-30T02:02:16.202Z,6.74
2022-09-30T02:03:16.101Z,6.76
2022-09-30T02:04:16.532Z,6.79
2022-09-30T02:05:16.091Z,6.81
2022-09-30T02:06:16.070Z,6.84
2022-09-30T02:07:16.082Z,6.88
2022-09-30T02:08:16.061Z,6.91
2022-09-30T02:09:16.403Z,6.92
2022-09-30T02:10:16.038Z,6.95
2022-09-30T02:11:16.006Z,6.95
2022-09-30T02:12:16.008Z,6.95
2022-09-30T02:13:15.981Z,6.97
2022-09-30T02:14:16.398Z,6.95
2022-09-30T02:15:15.959Z,6.97
2022-09-30T02:16:16.000Z,6.95
2022-09-30T02:17:15.944Z,6.97
2022-09-30T02:18:15.920Z,6.97
2022-09-30T02:19:16.290Z,6.97
2022-09-30T02:20:15.908Z,6.97
2022-09-30T02:21:15.886Z,6.94
2022-09-30T02:22:15.876Z,6.95
2022-09-30T02:23:15.845Z,6.92
2022-09-30T02:24:16.168Z,6.94
2022-09-30T02:25:15.827Z,6.92
2022-09-30T02:26:15.815Z,6.88
2022-09-30T02:27:15.799Z,6.85
2022-09-30T02:28:15.785Z,6.84
2022-09-30T02:29:16.193Z,6.81
2022-09-30T02:30:15.753Z,6.79
2022-09-30T02:31:15.786Z,6.74
2022-09-30T02:32:15.734Z,6.71
2022-09-30T02:33:15.728Z,6.69
2022-09-30T02:34:15.702Z,6.64
2022-09-30T02:35:16.051Z,6.55
2022-09-30T02:36:15.694Z,6.51
2022-09-30T02:37:15.670Z,6.48
2022-09-30T02:38:15.652Z,6.44
2022-09-30T02:39:16.076Z,6.46
2022-09-30T02:40:15.642Z,6.44
2022-09-30T02:41:15.623Z,6.43
2022-09-30T02:42:15.608Z,6.40
2022-09-30T02:43:15.596Z,6.37
2022-09-30T02:44:15.580Z,6.33
2022-09-30T02:45:15.991Z,6.28
2022-09-30T02:46:15.599Z,6.22
2022-09-30T02:47:15.538Z,6.19
2022-09-30T02:48:15.543Z,6.19
2022-09-30T02:49:15.839Z,6.19
2022-09-30T02:50:15.509Z,6.18
2022-09-30T02:51:15.487Z,6.17
2022-09-30T02:52:15.490Z,6.17
2022-09-30T02:53:15.467Z,6.17
2022-09-30T02:54:15.879Z,6.17
2022-09-30T02:55:15.442Z,6.19
2022-09-30T02:56:15.429Z,6.21
2022-09-30T02:57:15.413Z,6.25
2022-09-30T02:58:15.394Z,6.27
2022-09-30T02:59:15.774Z,6.30
2022-09-30T03:00:15.371Z,6.31
2022-09-30T03:01:15.413Z,6.33
2022-09-30T03:02:15.386Z,6.34
2022-09-30T03:03:15.341Z,6.37
2022-09-30T03:04:15.653Z,6.40
2022-09-30T03:05:15.318Z,6.41
2022-09-30T03:06:15.303Z,6.44
2022-09-30T03:07:15.287Z,6.48
2022-09-30T03:08:15.304Z,6.51
2022-09-30T03:09:15.758Z,6.49
2022-09-30T03:10:15.241Z,6.51
2022-09-30T03:11:15.289Z,6.52
2022-09-30T03:12:15.230Z,6.55
2022-09-30T03:13:15.201Z,6.56
2022-09-30T03:14:15.192Z,6.56
2022-09-30T03:15:15.483Z,6.56
2022-09-30T03:16:15.218Z,6.56
2022-09-30T03:17:15.158Z,6.58
2022-09-30T03:18:15.161Z,6.56
2022-09-30T03:19:15.550Z,6.55
2022-09-30T03:20:15.112Z,6.54
2022-09-30T03:21:15.105Z,6.49
2022-09-30T03:22:15.085Z,6.49
2022-09-30T03:23:15.082Z,6.48
2022-09-30T03:24:15.483Z,6.48
2022-09-30T03:25:15.061Z,6.49
2022-09-30T03:26:15.059Z,6.51
2022-09-30T03:27:15.047Z,6.49
2022-09-30T03:28:15.010Z,6.46
2022-09-30T03:29:15.347Z,6.43
2022-09-30T03:30:14.987Z,6.43
2022-09-30T03:31:14.997Z,6.43
2022-09-30T03:32:14.955Z,6.44
2022-09-30T03:33:14.954Z,6.43
2022-09-30T03:34:15.374Z,6.43
2022-09-30T03:35:14.914Z,6.41
2022-09-30T03:36:14.908Z,6.40
2022-09-30T03:37:14.902Z,6.40
2022-09-30T03:38:14.885Z,6.37
2022-09-30T03:39:15.302Z,6.33
2022-09-30T03:40:14.855Z,6.30
2022-09-30T03:41:14.853Z,6.27
2022-09-30T03:42:16.434Z,6.21
2022-09-30T03:43:14.832Z,6.18
2022-09-30T03:44:15.171Z,6.17
2022-09-30T03:45:14.794Z,6.14
2022-09-30T03:46:14.846Z,6.11
2022-09-30T03:47:14.768Z,6.06
2022-09-30T03:48:14.801Z,6.01
2022-09-30T03:49:15.164Z,5.97
2022-09-30T03:50:14.728Z,5.93
2022-09-30T03:51:14.712Z,5.93
2022-09-30T03:52:14.710Z,5.90
2022-09-30T03:53:14.691Z,5.91
2022-09-30T03:54:15.052Z,5.91
2022-09-30T03:55:14.667Z,5.91
2022-09-30T03:56:14.650Z,5.93
2022-09-30T03:57:14.666Z,5.91
2022-09-30T03:58:14.628Z,5.91
2022-09-30T03:59:15.036Z,5.89
2022-09-30T04:00:14.592Z,5.85
2022-09-30T04:01:14.646Z,5.81
2022-09-30T04:02:14.623Z,5.75
2022-09-30T04:03:14.565Z,5.74
2022-09-30T04:04:14.996Z,5.65
2022-09-30T04:05:14.535Z,5.58
2022-09-30T04:06:14.523Z,5.56
2022-09-30T04:07:14.595Z,5.56
2022-09-30T04:08:14.505Z,5.57
2022-09-30T04:09:15.012Z,5.56
2022-09-30T04:10:14.466Z,5.49
2022-09-30T04:11:14.454Z,5.46
2022-09-30T04:12:14.444Z,5.42
2022-09-30T04:13:21.449Z,5.38
2022-09-30T04:14:21.746Z,5.38
2022-09-30T04:15:22.493Z,5.38
2022-09-30T04:16:14.386Z,5.43
2022-09-30T04:17:22.407Z,5.39
2022-09-30T04:18:22.393Z,5.30
2022-09-30T04:19:21.771Z,5.25
2022-09-30T04:20:21.348Z,5.30
2022-09-30T04:21:14.336Z,5.33
2022-09-30T04:22:14.309Z,5.28
2022-09-30T04:23:14.305Z,5.22
2022-09-30T04:24:14.738Z,5.17
2022-09-30T04:25:14.277Z,5.13
2022-09-30T04:26:14.402Z,5.10
2022-09-30T04:27:14.247Z,5.07
2022-09-30T04:28:14.239Z,5.06
2022-09-30T04:29:14.334Z,5.07
2022-09-30T04:30:14.217Z,5.13
2022-09-30T04:31:14.243Z,5.10
2022-09-30T04:32:14.187Z,5.09
2022-09-30T04:33:14.213Z,5.09
2022-09-30T04:34:14.156Z,5.12
2022-09-30T04:35:14.629Z,5.10
2022-09-30T04:36:14.147Z,5.06
2022-09-30T04:37:14.135Z,5.02
2022-09-30T04:38:14.103Z,5.00
2022-09-30T04:39:14.548Z,4.97
2022-09-30T04:40:14.084Z,4.94
2022-09-30T04:41:14.074Z,4.91
2022-09-30T04:42:14.062Z,4.91
2022-09-30T04:43:14.052Z,4.88
2022-09-30T04:44:14.042Z,4.85
2022-09-30T04:45:14.061Z,4.82
2022-09-30T04:46:14.035Z,4.80
2022-09-30T04:47:14.001Z,4.77
2022-09-30T04:48:13.984Z,4.75
2022-09-30T04:49:13.994Z,4.69
2022-09-30T04:50:13.970Z,4.62
2022-09-30T04:51:13.959Z,4.55
2022-09-30T04:52:13.961Z,4.51
2022-09-30T04:53:34.910Z,4.45
2022-09-30T04:54:14.336Z,4.41
2022-09-30T04:55:13.899Z,4.42
2022-09-30T04:56:13.889Z,4.44
2022-09-30T04:57:13.892Z,4.45
2022-09-30T04:58:13.850Z,4.47
2022-09-30T04:59:13.939Z,4.48
2022-09-30T05:00:13.952Z,4.47
2022-09-30T05:01:13.920Z,4.45
2022-09-30T05:02:13.859Z,4.41
2022-09-30T05:03:13.799Z,4.37
2022-09-30T05:04:14.218Z,4.34
2022-09-30T05:05:13.761Z,4.34
2022-09-30T05:06:13.747Z,4.34
2022-09-30T05:07:13.747Z,4.44
2022-09-30T05:08:13.734Z,4.48
2022-09-30T05:09:13.780Z,4.58
2022-09-30T05:10:13.718Z,4.62
2022-09-30T05:11:13.687Z,4.67
2022-09-30T05:12:13.663Z,4.70
2022-09-30T05:13:13.663Z,4.75
2022-09-30T05:14:14.044Z,4.80
2022-09-30T05:15:13.663Z,4.82
2022-09-30T05:16:13.677Z,4.88
2022-09-30T05:17:13.607Z,4.91
2022-09-30T05:18:13.593Z,4.92
2022-09-30T05:19:13.918Z,4.96
2022-09-30T05:20:16.596Z,4.99
2022-09-30T05:21:14.573Z,5.03
2022-09-30T05:22:13.571Z,5.04
2022-09-30T05:23:13.511Z,5.02
2022-09-30T05:24:13.941Z,5.00
2022-09-30T05:25:13.499Z,4.99
2022-09-30T05:26:13.508Z,4.97
2022-09-30T05:27:13.490Z,4.99
2022-09-30T05:28:13.476Z,4.99
2022-09-30T05:29:13.984Z,5.00
2022-09-30T05:30:13.427Z,5.02
2022-09-30T05:31:13.567Z,5.02
2022-09-30T05:32:13.420Z,5.03
2022-09-30T05:33:13.408Z,5.03
2022-09-30T05:34:13.420Z,5.06
2022-09-30T05:35:13.367Z,5.10
2022-09-30T05:36:13.364Z,5.12
2022-09-30T05:37:13.347Z,5.18
2022-09-30T05:38:13.345Z,5.24
2022-09-30T05:39:13.728Z,5.28
2022-09-30T05:40:13.324Z,5.36
2022-09-30T05:41:13.302Z,5.45
2022-09-30T05:42:14.176Z,5.48
2022-09-30T05:43:13.267Z,5.54
2022-09-30T05:44:13.644Z,5.60
2022-09-30T05:45:13.252Z,5.64
2022-09-30T05:46:13.303Z,5.71
2022-09-30T05:47:13.214Z,5.75
2022-09-30T05:48:13.205Z,5.79
2022-09-30T05:49:13.547Z,5.82
2022-09-30T05:50:13.203Z,5.86
2022-09-30T05:51:13.163Z,5.91
2022-09-30T05:52:13.159Z,5.94
2022-09-30T05:53:13.142Z,5.99
2022-09-30T05:54:13.502Z,6.01
2022-09-30T05:55:13.126Z,6.03
2022-09-30T05:56:13.104Z,6.09
2022-09-30T05:57:13.083Z,6.14
2022-09-30T05:58:13.091Z,6.19
2022-09-30T05:59:13.503Z,6.25
2022-09-30T06:00:13.059Z,6.28
2022-09-30T06:01:13.775Z,6.33
2022-09-30T06:02:13.086Z,6.36
2022-09-30T06:03:13.026Z,6.37
2022-09-30T06:04:13.009Z,6.38
2022-09-30T06:05:13.302Z,6.37
2022-09-30T06:06:13.020Z,6.34
2022-09-30T06:07:12.966Z,6.36
2022-09-30T06:08:12.945Z,6.40
2022-09-30T06:09:13.311Z,6.46
2022-09-30T06:10:12.918Z,6.49
2022-09-30T06:11:12.927Z,6.55
2022-09-30T06:12:12.888Z,6.61
2022-09-30T06:13:12.881Z,6.64
2022-09-30T06:14:12.882Z,6.69
2022-09-30T06:15:13.300Z,6.74
2022-09-30T06:16:12.896Z,6.81
2022-09-30T06:17:12.825Z,6.88
2022-09-30T06:18:17.007Z,6.92
2022-09-30T06:19:13.246Z,6.95
2022-09-30T06:20:12.795Z,6.97
2022-09-30T06:21:12.779Z,6.98
2022-09-30T06:22:12.772Z,7.03
2022-09-30T06:23:12.755Z,7.05
2022-09-30T06:24:13.122Z,7.03
2022-09-30T06:25:12.732Z,7.05
2022-09-30T06:26:12.713Z,7.05
2022-09-30T06:27:12.724Z,7.09
2022-09-30T06:28:12.692Z,7.12
2022-09-30T06:29:13.119Z,7.15
2022-09-30T06:30:12.665Z,7.21
2022-09-30T06:31:12.720Z,7.25
2022-09-30T06:32:12.644Z,7.21
2022-09-30T06:33:12.623Z,7.16
2022-09-30T06:34:12.615Z,7.17
2022-09-30T06:35:12.934Z,7.24
2022-09-30T06:36:12.596Z,7.25
2022-09-30T06:37:12.570Z,7.27
2022-09-30T06:38:12.564Z,7.31
2022-09-30T06:39:13.827Z,7.34
2022-09-30T06:40:12.529Z,7.35
2022-09-30T06:41:12.519Z,7.43
2022-09-30T06:42:12.500Z,7.46
2022-09-30T06:43:12.501Z,7.46
2022-09-30T06:44:12.498Z,7.48
2022-09-30T06:45:21.841Z,7.40
2022-09-30T06:46:16.521Z,7.32
2022-09-30T06:48:33.801Z,7.13
2022-09-30T06:49:24.150Z,7.05
2022-09-30T06:50:29.578Z,7.05
2022-09-30T06:51:29.567Z,7.10
2022-09-30T06:52:29.554Z,7.10
2022-09-30T06:53:29.531Z,7.13
2022-09-30T06:54:30.977Z,7.17
2022-09-30T06:55:22.519Z,7.27
2022-09-30T06:56:22.516Z,7.35
2022-09-30T06:57:22.574Z,7.43
2022-09-30T06:58:22.483Z,7.50
2022-09-30T06:59:23.020Z,7.57
2022-09-30T07:00:22.476Z,7.60
2022-09-30T07:01:22.549Z,7.64
2022-09-30T07:02:22.486Z,7.68
2022-09-30T07:03:22.415Z,7.72
2022-09-30T07:04:22.846Z,7.75
2022-09-30T07:05:22.385Z,7.79
2022-09-30T07:06:22.386Z,7.82
2022-09-30T07:07:22.384Z,7.82
2022-09-30T07:08:22.364Z,7.89
2022-09-30T07:09:22.855Z,8.00
2022-09-30T07:10:22.337Z,8.11
2022-09-30T07:11:22.323Z,8.16
2022-09-30T07:12:22.316Z,8.08
2022-09-30T07:13:22.294Z,8.05
2022-09-30T07:14:22.614Z,8.08
2022-09-30T07:15:22.272Z,8.16
2022-09-30T07:16:22.327Z,8.20
2022-09-30T07:17:22.246Z,8.28
2022-09-30T07:18:22.235Z,8.36
2022-09-30T07:19:22.592Z,8.41
2022-09-30T07:20:22.205Z,8.43
2022-09-30T07:21:22.192Z,8.44
2022-09-30T07:22:22.183Z,8.48
2022-09-30T07:23:24.479Z,8.53
2022-09-30T07:24:22.471Z,8.59
2022-09-30T07:25:22.141Z,8.62
2022-09-30T07:26:22.150Z,8.56
2022-09-30T07:27:22.116Z,8.55
2022-09-30T07:28:22.107Z,8.50
2022-09-30T07:29:22.110Z,8.53
2022-09-30T07:30:27.020Z,8.52
2022-09-30T07:31:33.716Z,8.52
2022-09-30T07:32:23.202Z,8.56
2022-09-30T07:33:22.030Z,8.66
2022-09-30T07:34:22.538Z,8.77
2022-09-30T07:35:22.113Z,8.77
2022-09-30T07:36:21.998Z,8.61
2022-09-30T07:37:21.985Z,8.44
2022-09-30T07:38:21.982Z,8.36
2022-09-30T07:39:22.424Z,8.41
2022-09-30T07:40:21.959Z,8.50
2022-09-30T07:41:21.940Z,8.63
2022-09-30T07:42:22.632Z,8.77
2022-09-30T07:43:21.928Z,8.92
2022-09-30T07:44:21.916Z,8.94
2022-09-30T07:45:22.316Z,8.96
2022-09-30T07:46:21.884Z,8.99
2022-09-30T07:47:21.865Z,9.10
2022-09-30T07:48:21.856Z,9.08
2022-09-30T07:49:22.372Z,9.10
2022-09-30T07:50:21.836Z,9.05
2022-09-30T07:51:21.820Z,9.10
2022-09-30T07:52:21.848Z,9.08
2022-09-30T07:53:21.795Z,9.10
2022-09-30T07:54:21.782Z,9.10
2022-09-30T07:55:22.096Z,9.08
2022-09-30T07:56:21.766Z,9.14
2022-09-30T07:57:21.743Z,9.21
2022-09-30T07:58:21.733Z,9.24
2022-09-30T07:59:22.351Z,9.18
2022-09-30T08:00:41.746Z,9.04
2022-09-30T08:01:22.726Z,8.99
2022-09-30T08:02:21.780Z,9.01
2022-09-30T08:03:21.670Z,9.14
2022-09-30T08:04:21.862Z,9.26
2022-09-30T08:05:21.644Z,9.28
2022-09-30T08:06:21.635Z,9.46
2022-09-30T08:07:21.614Z,9.60
2022-09-30T08:08:21.611Z,9.76
2022-09-30T08:09:21.792Z,9.91
2022-09-30T08:10:21.607Z,10.01
2022-09-30T08:11:21.559Z,10.14
2022-09-30T08:12:21.559Z,10.20
2022-09-30T08:13:21.544Z,10.11
2022-09-30T08:14:21.964Z,10.09
2022-09-30T08:15:21.514Z,10.14
2022-09-30T08:16:21.511Z,10.14
2022-09-30T08:17:21.494Z,10.18
2022-09-30T08:18:21.483Z,10.30
2022-09-30T08:19:21.927Z,10.38
2022-09-30T08:20:22.610Z,10.41
2022-09-30T08:21:21.432Z,10.51
2022-09-30T08:22:21.422Z,10.55
2022-09-30T08:23:21.409Z,10.36
2022-09-30T08:24:21.806Z,9.97
2022-09-30T08:25:21.379Z,9.97
2022-09-30T08:26:21.369Z,9.87
2022-09-30T08:27:21.432Z,9.81
2022-09-30T08:28:21.341Z,9.65
2022-09-30T08:29:36.091Z,9.56
2022-09-30T08:30:22.323Z,9.57
2022-09-30T08:31:21.328Z,9.57
2022-09-30T08:32:21.309Z,9.61
2022-09-30T08:33:21.291Z,9.57
2022-09-30T08:34:21.622Z,9.69
2022-09-30T08:35:21.246Z,9.79
2022-09-30T08:36:21.248Z,9.94
2022-09-30T08:37:21.247Z,10.09
2022-09-30T08:38:21.228Z,10.14
2022-09-30T08:39:21.577Z,10.08
2022-09-30T08:40:21.300Z,9.99
2022-09-30T08:41:21.173Z,10.01
2022-09-30T08:42:36.628Z,10.14
2022-09-30T08:43:22.136Z,10.32
2022-09-30T08:44:21.487Z,10.55
2022-09-30T08:45:21.106Z,10.66
2022-09-30T08:46:21.135Z,10.71
2022-09-30T08:47:21.072Z,10.68
2022-09-30T08:48:21.067Z,10.63
2022-09-30T08:49:21.462Z,10.64
2022-09-30T08:50:21.053Z,10.70
2022-09-30T08:51:21.039Z,10.79
2022-09-30T08:52:30.339Z,10.79
2022-09-30T08:53:22.001Z,10.88
2022-09-30T08:54:20.989Z,11.04
2022-09-30T08:55:21.006Z,11.19
2022-09-30T08:56:20.964Z,11.32
2022-09-30T08:57:20.952Z,11.27
2022-09-30T08:58:20.962Z,11.19
2022-09-30T08:59:21.415Z,11.19
2022-09-30T09:00:20.995Z,11.28
2022-09-30T09:01:20.960Z,11.37
2022-09-30T09:02:21.003Z,11.42
2022-09-30T09:03:20.879Z,11.44
2022-09-30T09:04:21.303Z,11.47
2022-09-30T09:05:20.839Z,11.57
2022-09-30T09:06:20.833Z,11.55
2022-09-30T09:07:20.811Z,11.49
2022-09-30T09:08:20.819Z,11.44
2022-09-30T09:09:21.242Z,11.44
2022-09-30T09:10:20.864Z,11.29
2022-09-30T09:11:20.772Z,11.24
2022-09-30T09:12:20.754Z,11.22
2022-09-30T09:13:20.736Z,11.28
2022-09-30T09:14:21.167Z,11.29
2022-09-30T09:15:20.719Z,11.32
2022-09-30T09:16:20.726Z,11.37
2022-09-30T09:17:20.700Z,11.40
2022-09-30T09:18:23.985Z,11.49
2022-09-30T09:19:21.065Z,11.46
2022-09-30T09:20:20.655Z,11.52
2022-09-30T09:21:27.618Z,11.60
2022-09-30T09:22:27.614Z,11.67
2022-09-30T09:23:20.597Z,11.70
2022-09-30T09:24:20.596Z,11.72
2022-09-30T09:25:20.876Z,11.80
2022-09-30T09:26:20.567Z,11.85
2022-09-30T09:27:20.591Z,11.85
2022-09-30T09:28:20.589Z,11.82
2022-09-30T09:29:20.912Z,11.75
2022-09-30T09:30:35.062Z,11.80
2022-09-30T09:31:20.585Z,11.90
2022-09-30T09:32:20.505Z,11.96
2022-09-30T09:33:20.480Z,12.04
2022-09-30T09:34:20.476Z,12.05
2022-09-30T09:35:20.825Z,12.14
2022-09-30T09:36:20.454Z,12.24
2022-09-30T09:37:20.434Z,12.37
2022-09-30T09:38:20.424Z,12.35
2022-09-30T09:39:20.848Z,12.53
2022-09-30T09:40:20.402Z,12.65
2022-09-30T09:41:20.396Z,12.70
2022-09-30T09:42:20.372Z,12.72
2022-09-30T09:43:20.363Z,12.71
2022-09-30T09:44:20.343Z,12.79
2022-09-30T09:45:20.718Z,12.83
2022-09-30T09:46:20.423Z,12.89
2022-09-30T09:47:20.301Z,12.90
2022-09-30T09:48:20.304Z,12.85
2022-09-30T09:49:20.739Z,12.85
2022-09-30T09:50:20.269Z,12.92
2022-09-30T09:51:20.267Z,12.97
2022-09-30T09:52:20.259Z,13.11
2022-09-30T09:53:20.224Z,13.17
2022-09-30T09:54:20.214Z,13.33
2022-09-30T09:55:20.591Z,13.45
2022-09-30T09:56:20.180Z,13.48
2022-09-30T09:57:20.179Z,13.48
2022-09-30T09:58:20.157Z,13.46
2022-09-30T09:59:20.702Z,13.46
2022-09-30T10:00:20.145Z,13.55
2022-09-30T10:01:20.153Z,13.48
2022-09-30T10:02:20.179Z,13.45
2022-09-30T10:03:20.098Z,13.45
2022-09-30T10:04:20.519Z,13.51
2022-09-30T10:05:20.078Z,13.59
2022-09-30T10:06:20.049Z,13.66
2022-09-30T10:07:20.038Z,13.71
2022-09-30T10:08:20.045Z,13.71
2022-09-30T10:09:20.404Z,13.75
2022-09-30T10:10:23.885Z,13.84
2022-09-30T10:11:19.994Z,13.88
2022-09-30T10:12:19.970Z,13.81
2022-09-30T10:13:19.967Z,13.78
2022-09-30T10:14:19.948Z,13.67
2022-09-30T10:15:20.268Z,13.66
2022-09-30T10:16:19.958Z,13.73
2022-09-30T10:17:19.917Z,13.81
2022-09-30T10:18:19.900Z,13.91
2022-09-30T10:19:20.249Z,13.97
2022-09-30T10:20:19.877Z,13.87
2022-09-30T10:21:19.868Z,13.89
2022-09-30T10:22:19.847Z,13.96
2022-09-30T10:23:19.838Z,14.04
2022-09-30T10:24:20.134Z,14.04
2022-09-30T10:25:19.809Z,13.99
2022-09-30T10:26:19.847Z,13.89
2022-09-30T10:27:19.784Z,13.84
2022-09-30T10:28:19.813Z,13.85
2022-09-30T10:29:21.125Z,13.92
2022-09-30T10:30:19.747Z,13.97
2022-09-30T10:31:19.776Z,13.92
2022-09-30T10:32:19.798Z,13.97
2022-09-30T10:33:19.725Z,14.03
2022-09-30T10:34:20.145Z,14.00
2022-09-30T10:35:19.697Z,14.04
2022-09-30T10:36:19.666Z,14.10
2022-09-30T10:37:19.665Z,14.21
2022-09-30T10:38:19.634Z,14.25
2022-09-30T10:39:19.963Z,14.24
2022-09-30T10:40:19.617Z,14.29
2022-09-30T10:41:19.594Z,14.35
2022-09-30T10:42:25.061Z,14.33
2022-09-30T10:43:20.574Z,14.32
2022-09-30T10:44:19.993Z,14.39
2022-09-30T10:45:19.543Z,14.40
2022-09-30T10:46:26.463Z,14.29
2022-09-30T10:47:20.526Z,14.22
2022-09-30T10:48:19.509Z,14.20
2022-09-30T10:49:19.924Z,14.22
2022-09-30T10:50:19.482Z,14.35
2022-09-30T10:51:19.462Z,14.35
2022-09-30T10:52:19.464Z,14.45
2022-09-30T10:53:19.442Z,14.43
2022-09-30T10:54:19.434Z,14.39
2022-09-30T10:55:19.859Z,14.45
2022-09-30T10:56:19.413Z,14.51
2022-09-30T10:57:19.401Z,14.50
2022-09-30T10:58:19.375Z,14.46
2022-09-30T10:59:19.831Z,14.51
2022-09-30T11:00:19.352Z,14.57
2022-09-30T11:01:19.430Z,14.54
2022-09-30T11:02:19.322Z,14.58
2022-09-30T11:03:19.333Z,14.64
2022-09-30T11:04:19.748Z,14.72
2022-09-30T11:05:19.289Z,14.72
2022-09-30T11:06:19.269Z,14.70
2022-09-30T11:07:19.272Z,14.65
2022-09-30T11:08:19.252Z,14.70
2022-09-30T11:09:19.677Z,14.68
2022-09-30T11:10:19.230Z,14.61
2022-09-30T11:11:19.215Z,14.72
2022-09-30T11:12:19.199Z,14.78
2022-09-30T11:13:19.187Z,14.84
2022-09-30T11:14:19.191Z,14.95
2022-09-30T11:15:19.528Z,15.01
2022-09-30T11:16:19.209Z,15.11
2022-09-30T11:17:22.547Z,15.16
2022-09-30T11:18:19.116Z,15.20
2022-09-30T11:19:19.540Z,15.23
2022-09-30T11:20:19.093Z,15.32
2022-09-30T11:21:19.077Z,15.31
2022-09-30T11:22:19.065Z,15.28
2022-09-30T11:23:19.059Z,15.29
2022-09-30T11:24:19.483Z,15.23
2022-09-30T11:25:19.028Z,15.23
2022-09-30T11:26:19.007Z,15.17
2022-09-30T11:27:19.005Z,15.16
2022-09-30T11:28:19.045Z,15.14
2022-09-30T11:29:19.318Z,15.17
2022-09-30T11:30:18.968Z,15.27
2022-09-30T11:31:18.989Z,15.32
2022-09-30T11:32:18.935Z,15.34
2022-09-30T11:33:18.934Z,15.38
2022-09-30T11:34:19.351Z,15.49
2022-09-30T11:35:18.907Z,15.57
2022-09-30T11:36:18.908Z,15.57
2022-09-30T11:37:18.929Z,15.60
2022-09-30T11:38:18.863Z,15.65
2022-09-30T11:39:19.274Z,15.69
2022-09-30T11:40:18.833Z,15.69
2022-09-30T11:41:18.903Z,15.75
2022-09-30T11:42:18.804Z,15.87
2022-09-30T11:43:18.794Z,15.93
2022-09-30T11:44:19.173Z,15.86
2022-09-30T11:45:18.772Z,15.86
2022-09-30T11:46:18.796Z,15.83
2022-09-30T11:47:18.745Z,15.75
2022-09-30T11:48:18.732Z,15.76
2022-09-30T11:49:19.151Z,15.74
2022-09-30T11:50:18.723Z,15.74
2022-09-30T11:51:18.703Z,15.78
2022-09-30T11:52:18.689Z,15.78
2022-09-30T11:53:18.672Z,15.76
2022-09-30T11:54:18.672Z,15.83
2022-09-30T11:55:18.643Z,15.86
2022-09-30T11:56:25.979Z,15.87
2022-09-30T11:57:25.606Z,15.90
2022-09-30T11:58:39.937Z,15.94
2022-09-30T12:00:28.821Z,16.12
2022-09-30T12:01:35.836Z,16.17
2022-09-30T12:02:35.755Z,16.21
2022-09-30T12:03:35.814Z,16.21
2022-09-30T12:04:29.126Z,16.25
2022-09-30T12:05:28.737Z,16.35
2022-09-30T12:06:28.894Z,16.41
2022-09-30T12:07:28.705Z,16.41
2022-09-30T12:08:28.688Z,16.28
2022-09-30T12:09:29.104Z,16.31
2022-09-30T12:10:28.654Z,16.28
2022-09-30T12:11:28.642Z,16.35
2022-09-30T12:12:28.623Z,16.31
2022-09-30T12:13:28.615Z,16.30
2022-09-30T12:14:28.918Z,16.41
2022-09-30T12:15:28.589Z,16.52
2022-09-30T12:16:28.943Z,16.52
2022-09-30T12:17:28.562Z,16.49
2022-09-30T12:18:28.562Z,16.49
2022-09-30T12:19:28.963Z,16.61
2022-09-30T12:20:28.521Z,16.70
2022-09-30T12:21:28.521Z,16.67
2022-09-30T12:22:28.501Z,16.70
2022-09-30T12:23:28.491Z,16.79
2022-09-30T12:24:28.462Z,16.88
2022-09-30T12:25:28.860Z,16.91
2022-09-30T12:26:28.674Z,16.88
2022-09-30T12:27:28.449Z,16.88
2022-09-30T12:28:28.480Z,16.82
2022-09-30T12:29:28.856Z,16.83
2022-09-30T12:30:28.399Z,16.93
2022-09-30T12:31:28.433Z,16.94
2022-09-30T12:32:28.370Z,16.93
2022-09-30T12:33:28.361Z,17.01
2022-09-30T12:34:28.659Z,17.03
2022-09-30T12:35:28.352Z,16.91
2022-09-30T12:36:28.683Z,16.89
2022-09-30T12:37:28.310Z,16.94
2022-09-30T12:38:28.287Z,16.86
2022-09-30T12:39:28.590Z,16.86
2022-09-30T12:40:28.259Z,16.89
2022-09-30T12:41:28.279Z,16.96
2022-09-30T12:42:28.260Z,16.98
2022-09-30T12:43:28.241Z,17.07
2022-09-30T12:44:28.209Z,17.00
2022-09-30T12:45:28.681Z,17.03
2022-09-30T12:46:28.641Z,17.00
2022-09-30T12:47:28.188Z,17.01
2022-09-30T12:48:28.346Z,16.94
2022-09-30T12:49:28.527Z,16.93
2022-09-30T12:50:28.318Z,16.85
2022-09-30T12:51:28.153Z,16.79
2022-09-30T12:52:28.125Z,16.91
2022-09-30T12:53:28.106Z,16.91
2022-09-30T12:54:28.527Z,16.83
2022-09-30T12:55:28.092Z,16.86
2022-09-30T12:56:28.528Z,16.88
2022-09-30T12:57:28.057Z,16.85
2022-09-30T12:58:30.893Z,16.94
2022-09-30T12:59:28.075Z,17.00
2022-09-30T13:00:28.035Z,17.11
2022-09-30T13:01:28.127Z,17.21
2022-09-30T13:02:28.088Z,17.33
2022-09-30T13:03:27.971Z,17.43
2022-09-30T13:04:28.048Z,17.41
2022-09-30T13:05:27.984Z,17.49
2022-09-30T13:06:28.102Z,17.58
2022-09-30T13:07:27.953Z,17.62
2022-09-30T13:08:27.940Z,17.77
2022-09-30T13:09:27.936Z,17.82
2022-09-30T13:10:27.877Z,17.90